createdAt,value
2022-07-25T00:01:49.855Z,46.00
2022-07-25T00:04:17.691Z,45.60
2022-07-25T00:06:46.066Z,45.70
2022-07-25T00:09:13.168Z,45.80
2022-07-25T00:11:40.117Z,45.90
2022-07-25T00:14:07.945Z,46.00
2022-07-25T00:16:35.196Z,46.10
2022-07-25T00:19:02.281Z,46.20
2022-07-25T00:21:29.399Z,46.30
2022-07-25T00:23:56.365Z,46.40
2022-07-25T00:26:23.370Z,46.40
2022-07-25T00:28:50.300Z,46.50
2022-07-25T00:31:17.250Z,46.60
2022-07-25T00:33:44.201Z,46.70
2022-07-25T00:36:11.268Z,46.80
2022-07-25T00:38:38.213Z,47.00
2022-07-25T00:41:05.365Z,47.10
2022-07-25T00:43:32.363Z,47.20
2022-07-25T00:45:59.944Z,47.30
2022-07-25T00:48:28.514Z,47.40
2022-07-25T00:50:56.486Z,47.50
2022-07-25T00:53:24.019Z,47.50
2022-07-25T00:55:51.502Z,47.60
2022-07-25T00:58:18.963Z,47.70
2022-07-25T01:00:46.773Z,47.70
2022-07-25T01:03:13.884Z,47.80
2022-07-25T01:05:41.091Z,47.90
2022-07-25T01:08:08.898Z,48.00
2022-07-25T01:10:36.386Z,48.10
2022-07-25T01:13:03.993Z,48.20
2022-07-25T01:15:31.174Z,48.30
2022-07-25T01:17:58.146Z,48.20
2022-07-25T01:20:28.447Z,48.30
2022-07-25T01:22:55.679Z,48.50
2022-07-25T01:25:23.178Z,48.60
2022-07-25T01:27:55.453Z,48.50
2022-07-25T01:30:24.442Z,48.70
2022-07-25T01:32:52.197Z,48.70
2022-07-25T01:35:19.849Z,48.70
2022-07-25T01:37:46.959Z,48.70
2022-07-25T01:40:14.946Z,48.70
2022-07-25T01:42:43.003Z,48.80
2022-07-25T01:45:11.054Z,48.90
2022-07-25T01:47:38.469Z,49.10
2022-07-25T01:50:06.461Z,49.20
2022-07-25T01:52:33.575Z,49.30
2022-07-25T01:55:00.546Z,49.30
2022-07-25T01:57:31.120Z,49.40
2022-07-25T01:59:59.817Z,49.50
2022-07-25T02:02:27.045Z,49.50
2022-07-25T02:04:54.508Z,49.60
2022-07-25T02:07:21.475Z,49.60
2022-07-25T02:09:50.149Z,49.80
2022-07-25T02:12:20.325Z,49.80
2022-07-25T02:14:47.259Z,49.90
2022-07-25T02:17:14.298Z,50.00
2022-07-25T02:19:41.345Z,50.20
2022-07-25T02:22:08.618Z,50.70
2022-07-25T02:24:37.199Z,50.20
2022-07-25T02:27:05.108Z,50.30
2022-07-25T02:29:32.474Z,50.40
2022-07-25T02:31:59.374Z,50.40
2022-07-25T02:34:26.525Z,50.40
2022-07-25T02:36:53.642Z,50.30
2022-07-25T02:39:21.396Z,50.40
2022-07-25T02:41:48.303Z,50.50
2022-07-25T02:44:15.221Z,50.50
2022-07-25T02:46:42.229Z,50.70
2022-07-25T02:49:09.250Z,50.80
2022-07-25T02:51:36.150Z,50.90
2022-07-25T02:54:03.137Z,51.00
2022-07-25T02:56:32.052Z,51.20
2022-07-25T02:58:59.434Z,51.30
2022-07-25T03:01:27.071Z,51.40
2022-07-25T03:03:54.166Z,51.40
2022-07-25T03:06:21.121Z,51.40
2022-07-25T03:08:48.079Z,51.50
2022-07-25T03:11:16.716Z,51.60
2022-07-25T03:13:43.703Z,51.70
2022-07-25T03:16:10.872Z,51.80
2022-07-25T03:18:37.929Z,51.80
2022-07-25T03:21:05.315Z,51.80
2022-07-25T03:23:32.313Z,51.80
2022-07-25T03:25:59.283Z,51.90
2022-07-25T03:28:26.204Z,52.00
2022-07-25T03:30:53.499Z,52.20
2022-07-25T03:33:20.641Z,52.40
2022-07-25T03:35:47.625Z,52.40
2022-07-25T03:38:14.661Z,52.40
2022-07-25T03:40:41.634Z,52.40
2022-07-25T03:43:08.671Z,52.50
2022-07-25T03:45:35.734Z,52.60
2022-07-25T03:48:02.745Z,52.70
2022-07-25T03:50:29.880Z,52.80
2022-07-25T03:52:56.948Z,52.80
2022-07-25T03:55:23.946Z,52.90
2022-07-25T03:57:50.948Z,53.00
2022-07-25T04:00:18.353Z,53.00
2022-07-25T04:02:45.415Z,53.10
2022-07-25T04:05:12.462Z,53.10
2022-07-25T04:07:39.717Z,53.10
2022-07-25T04:10:08.097Z,53.20
2022-07-25T04:12:35.054Z,53.30
2022-07-25T04:15:02.092Z,53.40
2022-07-25T04:17:29.088Z,53.50
2022-07-25T04:19:56.233Z,53.50
2022-07-25T04:22:23.653Z,53.50
2022-07-25T04:24:50.608Z,53.60
2022-07-25T04:27:17.553Z,53.60
2022-07-25T04:29:44.471Z,53.70
2022-07-25T04:32:11.590Z,53.80
2022-07-25T04:34:38.596Z,53.90
2022-07-25T04:37:05.490Z,53.90
2022-07-25T04:39:32.444Z,54.10
2022-07-25T04:41:59.500Z,54.20
2022-07-25T04:44:26.477Z,54.30
2022-07-25T04:46:53.391Z,54.30
2022-07-25T04:49:20.444Z,54.90
2022-07-25T04:51:48.531Z,54.40
2022-07-25T04:54:15.464Z,54.50
2022-07-25T04:56:42.383Z,54.60
2022-07-25T04:59:09.300Z,54.60
2022-07-25T05:01:36.260Z,54.60
2022-07-25T05:04:03.606Z,54.70
2022-07-25T05:06:31.172Z,54.80
2022-07-25T05:08:58.139Z,54.90
2022-07-25T05:11:25.419Z,54.90
2022-07-25T05:13:52.348Z,54.90
2022-07-25T05:16:19.381Z,55.10
2022-07-25T05:18:46.485Z,55.20
2022-07-25T05:21:14.171Z,55.30
2022-07-25T05:23:41.355Z,55.40
2022-07-25T05:26:08.334Z,55.50
2022-07-25T05:28:35.386Z,55.70
2022-07-25T05:31:02.472Z,55.70
2022-07-25T05:33:29.746Z,55.80
2022-07-25T05:35:56.792Z,55.80
2022-07-25T05:38:23.712Z,55.70
2022-07-25T05:40:52.398Z,55.80
2022-07-25T05:43:19.738Z,55.90
2022-07-25T05:45:47.539Z,56.00
2022-07-25T05:48:15.162Z,56.10
2022-07-25T05:50:42.126Z,56.20
2022-07-25T05:53:09.181Z,56.20
2022-07-25T05:55:36.110Z,56.30
2022-07-25T05:58:09.530Z,56.30
2022-07-25T06:00:37.115Z,56.90
2022-07-25T06:03:04.508Z,56.50
2022-07-25T06:05:32.103Z,56.40
2022-07-25T06:07:59.026Z,56.40
2022-07-25T06:10:26.075Z,56.40
2022-07-25T06:12:53.048Z,56.40
2022-07-25T06:15:22.961Z,56.40
2022-07-25T06:17:54.064Z,56.20
2022-07-25T06:20:21.232Z,56.90
2022-07-25T06:22:48.241Z,56.30
2022-07-25T06:25:15.302Z,56.20
2022-07-25T06:27:42.705Z,56.40
2022-07-25T06:30:19.166Z,56.40
2022-07-25T06:32:48.201Z,56.20
2022-07-25T06:35:15.491Z,56.20
2022-07-25T06:37:42.558Z,56.20
2022-07-25T06:40:10.268Z,56.10
2022-07-25T06:42:41.716Z,56.10
2022-07-25T06:45:10.923Z,56.30
2022-07-25T06:47:38.898Z,56.20
2022-07-25T06:50:07.529Z,56.20
2022-07-25T06:52:34.996Z,56.20
2022-07-25T06:55:03.343Z,55.90
2022-07-25T06:57:30.260Z,55.40
2022-07-25T06:59:57.397Z,55.10
2022-07-25T07:02:24.463Z,54.90
2022-07-25T07:04:51.795Z,54.70
2022-07-25T07:07:18.689Z,54.50
2022-07-25T07:09:45.810Z,54.10
2022-07-25T07:12:12.743Z,53.60
2022-07-25T07:14:39.817Z,52.70
2022-07-25T07:17:06.743Z,52.20
2022-07-25T07:19:33.707Z,51.60
2022-07-25T07:22:00.925Z,51.10
2022-07-25T07:24:27.994Z,50.90
2022-07-25T07:26:55.019Z,50.30
2022-07-25T07:29:22.160Z,49.50
2022-07-25T07:31:49.235Z,48.50
2022-07-25T07:34:16.733Z,48.00
2022-07-25T07:36:44.013Z,47.60
2022-07-25T07:39:11.458Z,46.80
2022-07-25T07:41:38.541Z,46.20
2022-07-25T07:44:06.201Z,44.90
2022-07-25T07:46:33.149Z,44.40
2022-07-25T07:49:00.251Z,43.30
2022-07-25T07:51:27.286Z,42.70
2022-07-25T07:54:12.919Z,42.00
2022-07-25T07:56:39.971Z,40.80
2022-07-25T07:59:07.280Z,40.30
2022-07-25T08:01:34.996Z,39.60
2022-07-25T08:04:02.331Z,39.20
2022-07-25T08:06:29.287Z,38.50
2022-07-25T08:08:56.320Z,37.70
2022-07-25T08:11:23.312Z,36.80
2022-07-25T08:13:50.239Z,35.20
2022-07-25T08:16:17.354Z,35.40
2022-07-25T08:18:44.371Z,34.90
2022-07-25T08:21:11.870Z,34.50
2022-07-25T08:23:39.098Z,33.60
2022-07-25T08:26:06.935Z,33.10
2022-07-25T08:28:33.991Z,32.60
2022-07-25T08:31:01.093Z,32.10
2022-07-25T08:33:28.448Z,31.80
2022-07-25T08:35:56.502Z,31.10
2022-07-25T08:38:25.366Z,30.40
2022-07-25T08:40:54.020Z,30.50
2022-07-25T08:43:21.252Z,29.60
2022-07-25T08:45:55.580Z,29.80
2022-07-25T08:48:26.860Z,29.50
2022-07-25T08:50:57.142Z,29.60
2022-07-25T08:53:34.154Z,29.70
2022-07-25T08:56:10.383Z,29.20
2022-07-25T08:58:40.037Z,29.70
2022-07-25T09:01:08.064Z,29.70
2022-07-25T09:03:36.374Z,29.00
2022-07-25T09:06:17.738Z,28.80
2022-07-25T09:09:10.983Z,28.90
2022-07-25T09:11:38.564Z,28.90
2022-07-25T09:14:08.599Z,28.90
2022-07-25T09:16:41.926Z,29.30
2022-07-25T09:19:20.606Z,28.90
2022-07-25T09:22:10.309Z,28.50
2022-07-25T09:24:44.393Z,28.30
2022-07-25T09:27:12.784Z,28.70
2022-07-25T09:29:42.624Z,28.30
2022-07-25T09:32:20.101Z,28.40
2022-07-25T09:34:48.829Z,28.10
2022-07-25T09:37:18.214Z,28.20
2022-07-25T09:39:50.343Z,28.30
2022-07-25T09:42:25.994Z,28.00
2022-07-25T09:45:06.735Z,27.50
2022-07-25T09:47:35.956Z,27.20
2022-07-25T09:50:04.315Z,27.40
2022-07-25T09:52:31.824Z,27.70
2022-07-25T09:55:01.100Z,27.30
2022-07-25T09:57:28.134Z,27.30
2022-07-25T09:59:56.148Z,26.80
2022-07-25T10:02:41.311Z,26.70
2022-07-25T10:05:15.994Z,25.90
2022-07-25T10:07:47.264Z,25.70
2022-07-25T10:10:37.806Z,25.70
2022-07-25T10:13:11.199Z,25.80
2022-07-25T10:15:45.022Z,25.10
2022-07-25T10:18:13.391Z,25.20
2022-07-25T10:20:40.434Z,24.00
2022-07-25T10:23:28.178Z,24.50
2022-07-25T10:26:13.925Z,23.90
2022-07-25T10:28:49.050Z,23.70
2022-07-25T10:31:33.883Z,23.70
2022-07-25T10:34:06.754Z,23.20
2022-07-25T10:36:56.117Z,22.50
2022-07-25T10:39:24.085Z,22.50
2022-07-25T10:41:56.086Z,22.50
2022-07-25T10:44:23.188Z,22.10
2022-07-25T10:46:50.423Z,21.60
2022-07-25T10:49:31.176Z,21.20
2022-07-25T10:52:04.287Z,21.80
2022-07-25T10:54:36.884Z,21.90
2022-07-25T10:57:15.387Z,21.80
2022-07-25T10:59:42.441Z,21.40
2022-07-25T11:02:17.211Z,21.20
2022-07-25T11:05:05.083Z,21.30
2022-07-25T11:07:36.087Z,20.00
2022-07-25T11:10:05.794Z,19.40
2022-07-25T11:12:33.613Z,20.60
2022-07-25T11:15:06.356Z,20.80
2022-07-25T11:17:34.801Z,20.30
2022-07-25T11:20:01.790Z,21.40
2022-07-25T11:22:30.608Z,21.50
2022-07-25T11:24:58.337Z,20.40
2022-07-25T11:27:27.634Z,19.40
2022-07-25T11:30:08.657Z,19.30
2022-07-25T11:32:44.205Z,19.40
2022-07-25T11:35:13.137Z,19.70
2022-07-25T11:37:43.434Z,20.20
2022-07-25T11:40:11.451Z,20.70
2022-07-25T11:42:44.309Z,20.70
2022-07-25T11:45:22.790Z,20.60
2022-07-25T11:48:04.723Z,21.50
2022-07-25T11:50:33.621Z,22.40
2022-07-25T11:53:02.960Z,23.50
2022-07-25T11:55:32.257Z,24.20
2022-07-25T11:58:01.655Z,23.70
2022-07-25T12:00:29.754Z,23.00
2022-07-25T12:03:14.236Z,22.20
2022-07-25T12:05:46.236Z,21.90
2022-07-25T12:08:14.574Z,21.20
2022-07-25T12:10:44.038Z,20.90
2022-07-25T12:13:25.713Z,20.40
2022-07-25T12:15:53.083Z,20.10
2022-07-25T12:18:20.039Z,20.20
2022-07-25T12:20:47.143Z,22.10
2022-07-25T12:23:14.676Z,22.20
2022-07-25T12:25:43.939Z,21.70
2022-07-25T12:28:11.605Z,20.90
2022-07-25T12:30:39.955Z,21.70
2022-07-25T12:33:07.630Z,22.30
2022-07-25T12:35:37.249Z,22.00
2022-07-25T12:38:05.190Z,22.40
2022-07-25T12:40:32.444Z,22.10
2022-07-25T12:43:00.050Z,21.70
2022-07-25T12:45:27.956Z,21.50
2022-07-25T12:47:55.305Z,21.80
2022-07-25T12:50:25.698Z,22.10
2022-07-25T12:52:52.734Z,22.10
2022-07-25T12:55:20.424Z,21.80
2022-07-25T12:57:47.629Z,22.90
2022-07-25T13:00:17.130Z,24.00
2022-07-25T13:02:44.574Z,23.40
2022-07-25T13:05:11.995Z,22.30
2022-07-25T13:07:39.018Z,21.90
2022-07-25T13:10:06.914Z,22.00
2022-07-25T13:12:33.966Z,22.50
2022-07-25T13:15:01.693Z,22.70
2022-07-25T13:17:28.809Z,23.00
2022-07-25T13:19:57.063Z,23.20
2022-07-25T13:22:25.596Z,23.90
2022-07-25T13:24:53.549Z,25.20
2022-07-25T13:27:22.047Z,25.80
2022-07-25T13:29:54.807Z,24.70
2022-07-25T13:32:22.512Z,23.40
2022-07-25T13:34:50.029Z,22.70
2022-07-25T13:37:17.014Z,22.20
2022-07-25T13:39:44.102Z,22.60
2022-07-25T13:42:11.270Z,22.10
2022-07-25T13:44:38.409Z,20.70
2022-07-25T13:47:05.643Z,21.10
2022-07-25T13:49:32.715Z,20.90
2022-07-25T13:51:59.678Z,19.90
2022-07-25T13:54:26.600Z,19.40
2022-07-25T13:56:53.715Z,19.20
2022-07-25T13:59:21.900Z,19.40
2022-07-25T14:01:50.383Z,19.50
2022-07-25T14:04:17.786Z,19.40
2022-07-25T14:06:45.023Z,19.50
2022-07-25T14:09:12.079Z,20.40
2022-07-25T14:11:39.124Z,22.40
2022-07-25T14:14:06.064Z,23.40
2022-07-25T14:16:34.423Z,23.90
2022-07-25T14:19:02.384Z,21.80
2022-07-25T14:21:30.123Z,20.30
2022-07-25T14:23:57.445Z,19.70
2022-07-25T14:26:24.394Z,19.80
2022-07-25T14:28:51.534Z,20.10
2022-07-25T14:31:18.649Z,20.30
2022-07-25T14:33:45.691Z,20.70
2022-07-25T14:36:13.315Z,21.20
2022-07-25T14:38:40.338Z,21.60
2022-07-25T14:41:12.535Z,21.90
2022-07-25T14:43:40.731Z,22.50
2022-07-25T14:46:09.027Z,22.90
2022-07-25T14:48:37.460Z,24.40
2022-07-25T14:51:05.709Z,25.70
2022-07-25T14:53:33.095Z,26.30
2022-07-25T14:56:03.139Z,25.40
2022-07-25T14:58:30.566Z,23.90
2022-07-25T15:00:57.549Z,23.40
2022-07-25T15:03:24.809Z,23.30
2022-07-25T15:05:51.964Z,23.40
2022-07-25T15:08:18.907Z,24.40
2022-07-25T15:10:45.934Z,26.10
2022-07-25T15:13:30.556Z,26.30
2022-07-25T15:15:59.291Z,25.80
2022-07-25T15:18:26.328Z,24.70
2022-07-25T15:20:53.503Z,24.80
2022-07-25T15:23:21.098Z,25.70
2022-07-25T15:26:04.625Z,25.50
2022-07-25T15:28:37.177Z,25.30
2022-07-25T15:31:05.941Z,24.30
2022-07-25T15:33:33.521Z,23.70
2022-07-25T15:36:00.578Z,22.90
2022-07-25T15:38:29.016Z,22.60
2022-07-25T15:40:57.216Z,22.70
2022-07-25T15:43:24.802Z,23.00
2022-07-25T15:45:51.951Z,23.20
2022-07-25T15:48:19.270Z,23.50
2022-07-25T15:50:48.141Z,23.80
2022-07-25T15:53:15.800Z,24.10
2022-07-25T15:55:43.193Z,24.40
2022-07-25T15:58:11.153Z,24.60
2022-07-25T16:00:40.395Z,25.00
2022-07-25T16:03:07.890Z,25.20
2022-07-25T16:05:35.545Z,25.40
2022-07-25T16:08:03.046Z,25.40
2022-07-25T16:10:34.085Z,25.30
2022-07-25T16:13:01.253Z,25.60
2022-07-25T16:18:28.995Z,25.10
2022-07-25T16:21:04.337Z,25.10
2022-07-25T16:23:36.204Z,25.10
2022-07-25T16:26:06.097Z,25.00
2022-07-25T16:28:33.704Z,25.30
2022-07-25T16:31:00.724Z,25.30
2022-07-25T16:33:27.753Z,25.50
2022-07-25T16:35:54.772Z,25.80
2022-07-25T16:38:22.308Z,25.40
2022-07-25T16:41:07.441Z,25.40
2022-07-25T16:43:59.410Z,25.50
2022-07-25T16:46:29.413Z,25.50
2022-07-25T16:48:56.750Z,25.50
2022-07-25T16:51:23.868Z,25.60
2022-07-25T16:53:50.816Z,25.60
2022-07-25T16:56:17.884Z,25.60
2022-07-25T16:58:46.583Z,25.80
2022-07-25T17:01:14.919Z,25.90
2022-07-25T17:03:45.111Z,26.10
2022-07-25T17:06:14.728Z,26.30
2022-07-25T17:08:48.105Z,26.50
2022-07-25T17:11:41.459Z,26.70
2022-07-25T17:14:11.258Z,26.80
2022-07-25T17:16:49.255Z,26.70
2022-07-25T17:19:47.185Z,26.90
2022-07-25T17:22:52.850Z,27.00
2022-07-25T17:26:05.064Z,27.10
2022-07-25T17:35:34.457Z,27.60
2022-07-25T17:38:10.204Z,27.50
2022-07-25T17:40:46.069Z,27.70
2022-07-25T17:43:20.371Z,28.00
2022-07-25T17:46:16.359Z,28.00
2022-07-25T17:48:54.207Z,28.20
2022-07-25T17:51:46.397Z,28.20
2022-07-25T17:54:16.039Z,28.30
2022-07-25T17:57:32.164Z,27.80
2022-07-25T18:04:59.518Z,28.60
2022-07-25T18:11:43.879Z,28.90
2022-07-25T18:14:11.182Z,29.10
2022-07-25T18:16:41.445Z,29.10
2022-07-25T18:19:08.725Z,29.00
2022-07-25T18:21:35.658Z,29.00
2022-07-25T18:24:03.121Z,29.10
2022-07-25T18:26:30.133Z,29.10
2022-07-25T18:28:58.110Z,29.30
2022-07-25T18:31:25.329Z,29.40
2022-07-25T18:33:52.286Z,29.40
2022-07-25T18:36:19.453Z,29.60
2022-07-25T18:38:46.703Z,29.60
2022-07-25T18:41:28.696Z,29.80
2022-07-25T18:43:56.429Z,30.00
2022-07-25T18:46:24.160Z,30.00
2022-07-25T18:48:54.573Z,30.30
2022-07-25T18:51:24.928Z,30.20
2022-07-25T18:53:52.015Z,30.40
2022-07-25T18:56:19.372Z,30.50
2022-07-25T18:58:46.584Z,30.50
2022-07-25T19:01:13.654Z,30.80
2022-07-25T19:03:40.807Z,30.80
2022-07-25T19:06:09.974Z,31.10
2022-07-25T19:08:37.232Z,31.20
2022-07-25T19:11:04.332Z,31.20
2022-07-25T19:16:19.168Z,31.30
2022-07-25T19:18:46.761Z,31.40
2022-07-25T19:21:14.024Z,31.60
2022-07-25T19:23:41.048Z,31.70
2022-07-25T19:26:08.330Z,31.90
2022-07-25T19:28:36.053Z,32.10
2022-07-25T19:31:03.386Z,32.20
2022-07-25T19:33:34.781Z,32.30
2022-07-25T19:36:06.053Z,32.40
2022-07-25T19:38:33.423Z,32.30
2022-07-25T19:41:00.894Z,32.40
2022-07-25T19:43:28.129Z,32.40
2022-07-25T19:45:55.232Z,32.50
2022-07-25T19:48:24.962Z,32.70
2022-07-25T19:50:52.542Z,32.80
2022-07-25T19:53:19.673Z,33.00
2022-07-25T19:55:46.729Z,33.00
2022-07-25T19:58:13.881Z,33.20
2022-07-25T20:00:41.029Z,33.50
2022-07-25T20:03:08.058Z,33.60
2022-07-25T20:05:35.212Z,33.60
2022-07-25T20:08:02.182Z,33.70
2022-07-25T20:10:29.336Z,33.60
2022-07-25T20:13:00.951Z,33.60
2022-07-25T20:15:28.822Z,33.60
2022-07-25T20:17:56.958Z,33.00
2022-07-25T20:20:34.833Z,33.70
2022-07-25T20:23:02.018Z,33.90
2022-07-25T20:25:29.048Z,34.00
2022-07-25T20:27:55.996Z,34.10
2022-07-25T20:30:23.786Z,34.10
2022-07-25T20:32:52.695Z,34.10
2022-07-25T20:35:19.896Z,34.10
2022-07-25T20:37:46.886Z,34.20
2022-07-25T20:40:15.983Z,34.30
2022-07-25T20:42:43.314Z,34.40
2022-07-25T20:45:10.681Z,34.40
2022-07-25T20:47:37.771Z,34.30
2022-07-25T20:50:05.066Z,34.40
2022-07-25T20:52:33.323Z,34.60
2022-07-25T20:55:00.440Z,34.70
2022-07-25T20:57:27.330Z,34.80
2022-07-25T20:59:54.283Z,34.80
2022-07-25T21:02:21.338Z,34.90
2022-07-25T21:04:48.723Z,34.90
2022-07-25T21:07:19.223Z,34.90
2022-07-25T21:09:46.182Z,35.10
2022-07-25T21:12:13.276Z,35.20
2022-07-25T21:14:40.186Z,35.50
2022-07-25T21:17:08.457Z,35.60
2022-07-25T21:19:35.402Z,35.70
2022-07-25T21:22:03.015Z,35.70
2022-07-25T21:24:30.279Z,35.80
2022-07-25T21:26:57.262Z,35.70
2022-07-25T21:29:24.185Z,35.70
2022-07-25T21:31:51.372Z,35.60
2022-07-25T21:34:21.316Z,35.70
2022-07-25T21:36:48.421Z,35.70
2022-07-25T21:39:16.554Z,35.90
2022-07-25T21:41:44.898Z,36.10
2022-07-25T21:44:13.552Z,36.10
2022-07-25T21:46:40.621Z,36.10
2022-07-25T21:49:41.125Z,35.90
2022-07-25T21:52:13.787Z,36.00
2022-07-25T21:54:42.182Z,36.20
2022-07-25T21:57:13.388Z,36.30
2022-07-25T21:59:45.338Z,36.20
2022-07-25T22:02:13.216Z,36.40
2022-07-25T22:04:40.608Z,36.30
2022-07-25T22:07:07.574Z,36.20
2022-07-25T22:09:34.564Z,36.00
2022-07-25T22:12:01.948Z,35.90
2022-07-25T22:14:28.927Z,35.90
2022-07-25T22:16:56.142Z,35.80
2022-07-25T22:19:23.166Z,35.80
2022-07-25T22:21:50.814Z,35.80
2022-07-25T22:24:18.152Z,35.80
2022-07-25T22:26:45.307Z,36.00
2022-07-25T22:29:12.579Z,36.30
2022-07-25T22:31:39.740Z,36.50
2022-07-25T22:34:06.904Z,36.50
2022-07-25T22:36:33.965Z,36.50
2022-07-25T22:39:00.905Z,36.50
2022-07-25T22:41:28.021Z,36.70
2022-07-25T22:43:59.128Z,36.70
2022-07-25T22:46:31.261Z,36.70
2022-07-25T22:48:59.387Z,36.80
2022-07-25T22:51:27.786Z,36.90
2022-07-25T22:53:55.614Z,37.10
2022-07-25T22:56:23.215Z,37.20
2022-07-25T22:58:50.180Z,37.20
2022-07-25T23:01:18.076Z,37.40
2022-07-25T23:03:45.751Z,37.50
2022-07-25T23:06:13.130Z,37.60
2022-07-25T23:08:40.009Z,37.60
2022-07-25T23:11:07.208Z,37.70
2022-07-25T23:13:35.716Z,37.80
2022-07-25T23:16:04.003Z,38.10
2022-07-25T23:18:31.835Z,38.30
2022-07-25T23:20:59.000Z,38.40
2022-07-25T23:23:26.081Z,38.60
2022-07-25T23:25:53.058Z,38.70
2022-07-25T23:28:20.084Z,38.80
2022-07-25T23:30:47.025Z,39.00
2022-07-25T23:33:13.959Z,39.10
2022-07-25T23:35:42.329Z,39.30
2022-07-25T23:38:10.869Z,39.50
2022-07-25T23:40:37.879Z,39.50
2022-07-25T23:43:05.042Z,39.80
2022-07-25T23:45:32.108Z,39.90
2022-07-25T23:47:59.075Z,40.00
2022-07-25T23:50:25.998Z,40.10
2022-07-25T23:52:53.544Z,40.30
2022-07-25T23:55:20.600Z,40.40
2022-07-25T23:57:47.477Z,40.40
